createdAt,value
2019-03-21T00:00:31.541Z,87.09
2019-03-21T00:01:31.516Z,86.99
2019-03-21T00:02:31.498Z,86.9
2019-03-21T00:03:31.458Z,86.95
2019-03-21T00:04:31.436Z,87.47
2019-03-21T00:05:31.408Z,87.47
2019-03-21T00:06:31.379Z,87.38
2019-03-21T00:07:31.353Z,87.34
2019-03-21T00:08:31.328Z,87.81
2019-03-21T00:09:31.304Z,87.62
2019-03-21T00:10:31.309Z,87.81
2019-03-21T00:11:31.252Z,88
2019-03-21T00:12:31.217Z,88.09
2019-03-21T00:13:31.194Z,87.71
2019-03-21T00:14:31.165Z,88.09
2019-03-21T00:15:31.142Z,88.28
2019-03-21T00:16:31.116Z,88.19
2019-03-21T00:17:31.086Z,87.9
2019-03-21T00:18:31.061Z,88.13
2019-03-21T00:19:31.039Z,88.23
2019-03-21T00:20:31.007Z,88.47
2019-03-21T00:21:30.982Z,88.67
2019-03-21T00:22:32.156Z,88.67
2019-03-21T00:23:30.928Z,88.28
2019-03-21T00:24:30.902Z,88.67
2019-03-21T00:25:30.875Z,88.38
2019-03-21T00:26:31.403Z,88.28
2019-03-21T00:27:30.826Z,88.57
2019-03-21T00:28:30.795Z,88.38
2019-03-21T00:29:30.769Z,88.57
2019-03-21T00:30:30.746Z,88.47
2019-03-21T00:31:30.715Z,89.33
2019-03-21T00:32:30.697Z,89.14
2019-03-21T00:33:30.663Z,88.76
2019-03-21T00:34:30.635Z,89.04
2019-03-21T00:35:30.614Z,88.85
2019-03-21T00:36:30.582Z,89.23
2019-03-21T00:37:30.552Z,89.33
2019-03-21T00:38:30.531Z,89.61
2019-03-21T00:39:35.309Z,89.52
2019-03-21T00:40:30.476Z,89.52
2019-03-21T00:41:30.450Z,89.61
2019-03-21T00:42:30.422Z,90
2019-03-21T00:43:30.394Z,89.9
2019-03-21T00:44:30.365Z,90.56
2019-03-21T00:45:30.345Z,90.37
2019-03-21T00:46:30.311Z,90.56
2019-03-21T00:47:30.290Z,90.56
2019-03-21T00:48:30.259Z,90.28
2019-03-21T00:49:30.239Z,90.47
2019-03-21T00:50:30.212Z,90.56
2019-03-21T00:51:30.185Z,91.04
2019-03-21T00:52:30.154Z,91.13
2019-03-21T00:53:30.127Z,91.13
2019-03-21T00:54:30.103Z,91.04
2019-03-21T00:55:30.073Z,90.94
2019-03-21T00:56:30.047Z,90.85
2019-03-21T00:57:30.017Z,91.04
2019-03-21T00:58:30.006Z,91.23
2019-03-21T00:59:29.967Z,91.23
2019-03-21T01:00:29.938Z,91.13
2019-03-21T01:01:29.916Z,91.33
2019-03-21T01:02:29.885Z,91.33
2019-03-21T01:03:29.860Z,91.8
2019-03-21T01:04:29.833Z,91.52
2019-03-21T01:05:29.811Z,91.61
2019-03-21T01:06:29.781Z,91.33
2019-03-21T01:07:29.754Z,91.71
2019-03-21T01:08:29.725Z,91.61
2019-03-21T01:09:29.696Z,91.89
2019-03-21T01:10:29.671Z,91.99
2019-03-21T01:11:29.645Z,91.89
2019-03-21T01:12:29.895Z,91.99
2019-03-21T01:13:29.586Z,91.71
2019-03-21T01:14:32.480Z,91.8
2019-03-21T01:15:29.532Z,91.99
2019-03-21T01:16:29.508Z,91.89
2019-03-21T01:17:29.484Z,92.75
2019-03-21T01:18:29.507Z,92.56
2019-03-21T01:19:29.427Z,92.56
2019-03-21T01:20:29.402Z,92.46
2019-03-21T01:21:29.374Z,92.46
2019-03-21T01:22:29.348Z,92.46
2019-03-21T01:23:29.314Z,92.85
2019-03-21T01:24:29.293Z,92.46
2019-03-21T01:25:29.264Z,92.85
2019-03-21T01:26:29.237Z,92.85
2019-03-21T01:27:29.210Z,92.66
2019-03-21T01:28:29.186Z,92.66
2019-03-21T01:29:29.162Z,92.66
2019-03-21T01:30:29.128Z,92.56
2019-03-21T01:31:29.099Z,92.46
2019-03-21T01:32:29.078Z,92.56
2019-03-21T01:33:29.048Z,92.85
2019-03-21T01:34:29.026Z,92.56
2019-03-21T01:35:28.996Z,93.04
2019-03-21T01:36:28.965Z,93.23
2019-03-21T01:37:28.939Z,92.85
2019-03-21T01:38:28.908Z,93.13
2019-03-21T01:39:28.882Z,93.32
2019-03-21T01:40:28.854Z,93.32
2019-03-21T01:41:28.833Z,93.51
2019-03-21T01:42:28.819Z,93.32
2019-03-21T01:43:28.774Z,93.13
2019-03-21T01:44:28.749Z,93.04
2019-03-21T01:45:28.724Z,93.04
2019-03-21T01:46:28.693Z,93.23
2019-03-21T01:47:28.670Z,93.89
2019-03-21T01:48:28.642Z,93.89
2019-03-21T01:49:28.613Z,93.75
2019-03-21T01:50:29.784Z,94.18
2019-03-21T01:51:28.556Z,93.84
2019-03-21T01:52:28.529Z,94.18
2019-03-21T01:53:28.501Z,93.65
2019-03-21T01:54:28.473Z,93.84
2019-03-21T01:55:28.458Z,93.84
2019-03-21T01:56:28.424Z,93.94
2019-03-21T01:57:28.391Z,94.32
2019-03-21T01:58:28.367Z,94.03
2019-03-21T01:59:28.336Z,94.6
2019-03-21T02:00:28.315Z,94.6
2019-03-21T02:01:28.285Z,94.6
2019-03-21T02:02:28.255Z,94.32
2019-03-21T02:03:28.227Z,94.23
2019-03-21T02:04:28.201Z,94.42
2019-03-21T02:05:28.174Z,94.42
2019-03-21T02:06:28.146Z,94.42
2019-03-21T02:07:28.117Z,94.42
2019-03-21T02:08:28.090Z,94.6
2019-03-21T02:09:28.066Z,94.7
2019-03-21T02:10:28.041Z,94.79
2019-03-21T02:11:28.006Z,94.98
2019-03-21T02:12:27.983Z,95.36
2019-03-21T02:13:27.958Z,95.27
2019-03-21T02:14:27.927Z,94.79
2019-03-21T02:15:27.898Z,95.08
2019-03-21T02:16:27.874Z,94.98
2019-03-21T02:17:27.849Z,94.79
2019-03-21T02:18:27.825Z,95.46
2019-03-21T02:19:27.786Z,95.46
2019-03-21T02:20:27.762Z,95.08
2019-03-21T02:21:27.734Z,95.27
2019-03-21T02:22:27.705Z,95.65
2019-03-21T02:23:27.676Z,95.55
2019-03-21T02:24:27.653Z,95.36
2019-03-21T02:25:27.620Z,95.46
2019-03-21T02:26:27.601Z,95.46
2019-03-21T02:27:27.628Z,96.03
2019-03-21T02:28:27.543Z,95.75
2019-03-21T02:29:27.514Z,96.22
2019-03-21T02:30:27.491Z,95.89
2019-03-21T02:31:27.615Z,96.03
2019-03-21T02:32:27.434Z,95.98
2019-03-21T02:33:27.404Z,95.89
2019-03-21T02:34:27.375Z,95.79
2019-03-21T02:35:30.699Z,96.36
2019-03-21T02:36:27.543Z,96.08
2019-03-21T02:37:27.291Z,96.26
2019-03-21T02:38:27.267Z,96.64
2019-03-21T02:39:27.238Z,96.17
2019-03-21T02:40:27.211Z,96.83
2019-03-21T02:41:28.232Z,96.74
2019-03-21T02:42:27.162Z,97.12
2019-03-21T02:43:27.170Z,97.02
2019-03-21T02:44:27.103Z,97.31
2019-03-21T02:45:26.835Z,97.31
2019-03-21T02:46:27.049Z,97.02
2019-03-21T02:47:27.020Z,97.41
2019-03-21T02:48:26.984Z,97.41
2019-03-21T02:49:26.969Z,97.31
2019-03-21T02:50:26.932Z,97.6
2019-03-21T02:51:26.902Z,97.69
2019-03-21T02:52:26.877Z,97.78
2019-03-21T02:53:26.876Z,97.6
2019-03-21T02:54:26.844Z,97.97
2019-03-21T02:55:26.796Z,97.78
2019-03-21T02:56:26.768Z,97.88
2019-03-21T02:57:26.736Z,98.45
2019-03-21T02:58:26.715Z,98.07
2019-03-21T02:59:26.691Z,97.97
2019-03-21T03:00:26.656Z,98.45
2019-03-21T03:01:26.668Z,98.54
2019-03-21T03:02:26.603Z,98.35
2019-03-21T03:03:26.574Z,98.54
2019-03-21T03:04:26.562Z,99.4
2019-03-21T03:05:26.519Z,98.64
2019-03-21T03:06:26.486Z,99.11
2019-03-21T03:07:26.482Z,99.02
2019-03-21T03:08:26.438Z,98.83
2019-03-21T03:09:26.408Z,98.54
2019-03-21T03:10:26.377Z,99.4
2019-03-21T03:11:26.354Z,99.11
2019-03-21T03:12:26.354Z,99.68
2019-03-21T03:13:26.298Z,99.49
2019-03-21T03:14:26.266Z,99.21
2019-03-21T03:15:26.239Z,98.83
2019-03-21T03:16:26.227Z,99.21
2019-03-21T03:17:26.181Z,99.11
2019-03-21T03:18:26.165Z,99.11
2019-03-21T03:19:26.131Z,99.49
2019-03-21T03:20:26.097Z,99.21
2019-03-21T03:21:26.087Z,99.21
2019-03-21T03:22:26.045Z,99.21
2019-03-21T03:23:26.158Z,99.21
2019-03-21T03:24:25.987Z,99.3
2019-03-21T03:25:25.994Z,99.3
2019-03-21T03:26:25.961Z,99.87
2019-03-21T03:27:25.900Z,98.92
2019-03-21T03:28:25.943Z,99.77
2019-03-21T03:29:25.846Z,99.77
2019-03-21T03:30:25.838Z,99.68
2019-03-21T03:31:25.807Z,99.3
2019-03-21T03:32:25.774Z,99.77
2019-03-21T03:33:25.747Z,99.87
2019-03-21T03:34:25.712Z,99.3
2019-03-21T03:35:25.678Z,99.21
2019-03-21T03:36:25.652Z,99.58
2019-03-21T03:37:25.623Z,99.99
2019-03-21T03:38:25.596Z,99.68
2019-03-21T03:39:25.568Z,99.99
2019-03-21T03:40:25.541Z,99.99
2019-03-21T03:41:25.508Z,99.99
2019-03-21T03:42:25.243Z,99.97
2019-03-21T03:43:25.466Z,99.97
2019-03-21T03:44:25.429Z,99.77
2019-03-21T03:45:39.772Z,99.77
2019-03-21T03:46:25.447Z,99.99
2019-03-21T03:47:25.105Z,99.87
2019-03-21T03:48:25.313Z,99.99
2019-03-21T03:49:25.294Z,99.99
2019-03-21T03:50:25.259Z,99.99
2019-03-21T03:51:25.245Z,99.99
2019-03-21T03:52:24.976Z,99.99
2019-03-21T03:53:25.176Z,99.99
2019-03-21T03:54:25.151Z,99.99
2019-03-21T03:55:25.121Z,99.99
2019-03-21T03:56:25.088Z,99.99
2019-03-21T03:57:25.064Z,99.99
2019-03-21T03:58:25.039Z,99.99
2019-03-21T03:59:25.008Z,99.99
2019-03-21T04:00:24.981Z,99.99
2019-03-21T04:01:24.950Z,99.99
2019-03-21T04:02:24.932Z,99.99
2019-03-21T04:03:24.895Z,99.99
2019-03-21T04:04:24.865Z,99.99
2019-03-21T04:05:24.841Z,99.99
2019-03-21T04:06:24.810Z,99.99
2019-03-21T04:07:24.783Z,99.99
2019-03-21T04:08:24.760Z,99.99
2019-03-21T04:09:24.733Z,99.99
2019-03-21T04:10:24.694Z,99.99
2019-03-21T04:11:24.673Z,99.99
2019-03-21T04:12:24.708Z,99.99
2019-03-21T04:13:24.619Z,99.99
2019-03-21T04:14:24.589Z,99.99
2019-03-21T04:15:24.579Z,99.99
2019-03-21T04:16:24.541Z,99.99
2019-03-21T04:17:24.501Z,99.99
2019-03-21T04:18:24.468Z,99.99
2019-03-21T04:19:24.452Z,99.99
2019-03-21T04:20:24.420Z,99.99
2019-03-21T04:21:24.393Z,99.99
2019-03-21T04:22:24.358Z,99.99
2019-03-21T04:23:24.337Z,99.99
2019-03-21T04:24:24.320Z,99.99
2019-03-21T04:25:24.281Z,99.99
2019-03-21T04:26:24.252Z,99.99
2019-03-21T04:27:24.229Z,99.99
2019-03-21T04:28:24.265Z,99.99
2019-03-21T04:29:24.164Z,99.99
2019-03-21T04:30:24.134Z,99.99
2019-03-21T04:31:24.105Z,99.99
2019-03-21T04:32:24.081Z,99.99
2019-03-21T04:33:25.473Z,99.99
2019-03-21T04:34:24.027Z,99.99
2019-03-21T04:35:24.001Z,99.99
2019-03-21T04:36:23.963Z,99.99
2019-03-21T04:37:23.939Z,99.99
2019-03-21T04:38:23.910Z,99.99
2019-03-21T04:39:23.885Z,99.99
2019-03-21T04:40:23.616Z,99.99
2019-03-21T04:41:23.819Z,99.99
2019-03-21T04:42:23.797Z,99.99
2019-03-21T04:43:23.767Z,99.99
2019-03-21T04:44:23.737Z,99.99
2019-03-21T04:45:23.712Z,99.99
2019-03-21T04:46:23.689Z,99.99
2019-03-21T04:47:23.654Z,99.99
2019-03-21T04:48:23.624Z,99.99
2019-03-21T04:49:23.651Z,99.99
2019-03-21T04:50:23.569Z,99.99
2019-03-21T04:51:23.541Z,99.99
2019-03-21T04:52:23.513Z,99.99
2019-03-21T04:53:23.482Z,99.99
2019-03-21T04:54:23.461Z,99.99
2019-03-21T04:55:23.425Z,99.99
2019-03-21T04:56:23.399Z,99.99
2019-03-21T04:57:23.373Z,99.99
2019-03-21T04:58:23.345Z,99.99
2019-03-21T04:59:23.326Z,99.99
2019-03-21T05:00:23.289Z,99.99
2019-03-21T05:01:23.260Z,99.99
2019-03-21T05:02:23.235Z,99.99
2019-03-21T05:03:23.216Z,99.99
2019-03-21T05:04:22.936Z,99.99
2019-03-21T05:05:23.145Z,99.99
2019-03-21T05:06:23.118Z,99.99
2019-03-21T05:07:23.089Z,99.99
2019-03-21T05:08:23.060Z,99.99
2019-03-21T05:09:23.036Z,99.99
2019-03-21T05:10:23.008Z,99.99
2019-03-21T05:11:22.978Z,99.99
2019-03-21T05:12:22.948Z,99.99
2019-03-21T05:13:22.923Z,99.99
2019-03-21T05:14:22.892Z,99.99
2019-03-21T05:15:22.865Z,99.99
2019-03-21T05:16:22.864Z,99.99
2019-03-21T05:17:24.010Z,99.99
2019-03-21T05:18:22.779Z,99.99
2019-03-21T05:19:22.759Z,99.99
2019-03-21T05:20:22.726Z,99.99
2019-03-21T05:21:22.694Z,99.99
2019-03-21T05:22:22.666Z,99.99
2019-03-21T05:23:22.638Z,99.99
2019-03-21T05:24:22.613Z,99.99
2019-03-21T05:25:22.580Z,99.99
2019-03-21T05:26:22.555Z,99.99
2019-03-21T05:27:22.529Z,99.99
2019-03-21T05:28:22.496Z,99.99
2019-03-21T05:29:22.472Z,99.99
2019-03-21T05:30:22.443Z,99.99
2019-03-21T05:31:22.417Z,99.99
2019-03-21T05:32:22.387Z,99.99
2019-03-21T05:33:22.359Z,99.99
2019-03-21T05:34:22.777Z,99.99
2019-03-21T05:35:22.303Z,99.99
2019-03-21T05:36:22.281Z,99.99
2019-03-21T05:37:22.250Z,99.99
2019-03-21T05:38:22.229Z,99.99
2019-03-21T05:39:22.197Z,99.99
2019-03-21T05:40:22.163Z,99.99
2019-03-21T05:41:22.144Z,99.99
2019-03-21T05:42:22.110Z,99.99
2019-03-21T05:43:22.085Z,99.99
2019-03-21T05:44:22.069Z,99.99
2019-03-21T05:45:22.028Z,99.99
2019-03-21T05:46:28.988Z,99.99
2019-03-21T05:47:21.975Z,99.99
2019-03-21T05:48:21.947Z,99.99
2019-03-21T05:49:21.924Z,99.99
2019-03-21T05:50:21.893Z,99.99
2019-03-21T05:51:21.866Z,99.99
2019-03-21T05:52:21.838Z,99.99
2019-03-21T05:53:21.810Z,99.99
2019-03-21T05:54:21.788Z,99.99
2019-03-21T05:55:21.756Z,99.99
2019-03-21T05:56:21.729Z,99.99
2019-03-21T05:57:21.700Z,99.99
2019-03-21T05:58:21.678Z,99.99
2019-03-21T05:59:21.649Z,99.99
2019-03-21T06:00:21.618Z,99.99
2019-03-21T06:01:21.598Z,99.99
2019-03-21T06:02:21.565Z,99.99
2019-03-21T06:03:21.541Z,99.99
2019-03-21T06:04:21.512Z,99.99
2019-03-21T06:05:21.489Z,99.99
2019-03-21T06:06:21.462Z,99.99
2019-03-21T06:07:21.429Z,99.99
2019-03-21T06:08:21.410Z,99.99
2019-03-21T06:09:21.376Z,99.99
2019-03-21T06:10:21.353Z,99.99
2019-03-21T06:11:21.960Z,99.99
2019-03-21T06:12:22.088Z,99.99
2019-03-21T06:13:22.471Z,99.99
2019-03-21T06:14:21.247Z,99.99
2019-03-21T06:15:21.215Z,99.99
2019-03-21T06:16:21.191Z,99.99
2019-03-21T06:17:21.162Z,99.99
2019-03-21T06:18:21.137Z,99.99
2019-03-21T06:19:21.383Z,99.99
2019-03-21T06:20:21.360Z,99.99
2019-03-21T06:21:21.270Z,99.99
2019-03-21T06:22:21.331Z,99.99
2019-03-21T06:23:20.959Z,99.99
2019-03-21T06:24:21.315Z,99.99
2019-03-21T06:25:22.116Z,99.99
2019-03-21T06:26:21.709Z,99.99
2019-03-21T06:27:20.900Z,99.99
2019-03-21T06:28:20.978Z,99.99
2019-03-21T06:29:20.845Z,99.99
2019-03-21T06:30:20.818Z,99.99
2019-03-21T06:31:20.791Z,99.99
2019-03-21T06:32:20.765Z,99.99
2019-03-21T06:33:20.740Z,99.99
2019-03-21T06:34:20.711Z,99.99
2019-03-21T06:35:20.687Z,99.99
2019-03-21T06:36:20.661Z,99.99
2019-03-21T06:37:20.633Z,99.99
2019-03-21T06:38:20.605Z,99.99
2019-03-21T06:39:20.582Z,99.99
2019-03-21T06:40:20.321Z,99.99
2019-03-21T06:41:20.535Z,99.99
2019-03-21T06:42:20.277Z,99.99
2019-03-21T06:43:20.638Z,99.99
2019-03-21T06:44:21.332Z,99.99
2019-03-21T06:45:21.192Z,99.99
2019-03-21T06:46:20.710Z,99.99
2019-03-21T06:47:20.375Z,99.99
2019-03-21T06:48:20.345Z,99.99
2019-03-21T06:49:20.319Z,99.99
2019-03-21T06:50:20.294Z,99.99
2019-03-21T06:51:20.264Z,99.99
2019-03-21T06:52:20.243Z,99.97
2019-03-21T06:53:20.223Z,99.99
2019-03-21T06:54:20.192Z,99.78
2019-03-21T06:55:20.160Z,99.97
2019-03-21T06:56:20.134Z,99.88
2019-03-21T06:57:20.115Z,99.4
2019-03-21T06:58:20.086Z,99.02
2019-03-21T06:59:20.061Z,99.11
2019-03-21T07:00:20.034Z,98.93
2019-03-21T07:01:20.007Z,98.64
2019-03-21T07:02:19.981Z,99.11
2019-03-21T07:03:19.961Z,98.74
2019-03-21T07:04:19.930Z,98.36
2019-03-21T07:05:19.905Z,98.64
2019-03-21T07:06:20.029Z,97.88
2019-03-21T07:07:20.152Z,98.31
2019-03-21T07:08:19.992Z,97.36
2019-03-21T07:09:20.181Z,97.55
2019-03-21T07:10:19.775Z,97.27
2019-03-21T07:11:19.751Z,96.89
2019-03-21T07:12:19.723Z,96.6
2019-03-21T07:13:19.695Z,96.89
2019-03-21T07:14:19.673Z,96.31
2019-03-21T07:15:19.649Z,96.5
2019-03-21T07:16:19.624Z,96.31
2019-03-21T07:17:19.600Z,95.75
2019-03-21T07:18:19.570Z,95.46
2019-03-21T07:19:19.548Z,95.94
2019-03-21T07:20:19.521Z,95.17
2019-03-21T07:21:19.747Z,95.36
2019-03-21T07:22:19.474Z,95.22
2019-03-21T07:23:19.445Z,94.84
2019-03-21T07:24:19.437Z,94.74
2019-03-21T07:25:19.393Z,94.74
2019-03-21T07:26:20.104Z,94.46
2019-03-21T07:27:20.429Z,93.98
2019-03-21T07:28:20.689Z,94.27
2019-03-21T07:29:21.018Z,93.89
2019-03-21T07:30:20.195Z,93.41
2019-03-21T07:31:20.260Z,93.51
2019-03-21T07:32:20.057Z,93.04
2019-03-21T07:33:19.195Z,92.56
2019-03-21T07:34:19.174Z,92.56
2019-03-21T07:35:19.145Z,92.75
2019-03-21T07:36:19.121Z,92.18
2019-03-21T07:37:19.173Z,92.56
2019-03-21T07:38:19.074Z,92.36
2019-03-21T07:39:19.053Z,91.89
2019-03-21T07:40:19.026Z,91.61
2019-03-21T07:41:19.007Z,91.51
2019-03-21T07:42:19.115Z,91.13
2019-03-21T07:43:18.956Z,90.84
2019-03-21T07:44:18.925Z,90.89
2019-03-21T07:45:19.898Z,90.42
2019-03-21T07:46:18.905Z,90.99
2019-03-21T07:47:18.855Z,90.51
2019-03-21T07:48:18.832Z,90.32
2019-03-21T07:49:18.811Z,89.94
2019-03-21T07:50:18.786Z,89.75
2019-03-21T07:51:18.785Z,89.84
2019-03-21T07:52:18.737Z,89.47
2019-03-21T07:53:18.712Z,89.56
2019-03-21T07:54:18.682Z,88.89
2019-03-21T07:55:18.665Z,89.08
2019-03-21T07:56:18.643Z,89.75
2019-03-21T07:57:18.617Z,88.89
2019-03-21T07:58:18.589Z,88.89
2019-03-21T07:59:18.617Z,88.42
2019-03-21T08:00:18.538Z,88.56
2019-03-21T08:01:18.514Z,87.89
2019-03-21T08:02:18.366Z,88.27
2019-03-21T08:03:18.469Z,87.98
2019-03-21T08:04:18.446Z,87.6
2019-03-21T08:05:18.418Z,87.51
2019-03-21T08:06:18.397Z,86.84
2019-03-21T08:07:18.374Z,86.94
2019-03-21T08:08:18.346Z,86.65
2019-03-21T08:09:18.328Z,86.46
2019-03-21T08:10:18.175Z,86.27
2019-03-21T08:11:18.135Z,86.27
2019-03-21T08:12:18.361Z,85.41
2019-03-21T08:13:18.228Z,85.27
2019-03-21T08:14:18.224Z,85.08
2019-03-21T08:15:18.195Z,84.41
2019-03-21T08:16:18.353Z,84.6
2019-03-21T08:17:18.236Z,84.41
2019-03-21T08:18:18.353Z,84.03
2019-03-21T08:19:19.044Z,83.36
2019-03-21T08:20:19.380Z,83.26
2019-03-21T08:21:19.411Z,83.45
2019-03-21T08:22:18.464Z,82.79
2019-03-21T08:23:18.851Z,82.89
2019-03-21T08:24:18.418Z,82.12
2019-03-21T08:25:18.137Z,82.41
2019-03-21T08:26:18.957Z,82.26
2019-03-21T08:27:18.037Z,81.88
2019-03-21T08:28:17.895Z,81.88
2019-03-21T08:29:17.856Z,81.88
2019-03-21T08:30:17.834Z,81.88
2019-03-21T08:31:17.813Z,81.49
2019-03-21T08:32:17.785Z,81.59
2019-03-21T08:33:18.016Z,81.12
2019-03-21T08:34:17.741Z,81.02
2019-03-21T08:35:17.720Z,81.49
2019-03-21T08:36:17.706Z,80.44
2019-03-21T08:37:17.676Z,80.64
2019-03-21T08:38:17.791Z,80.26
2019-03-21T08:39:17.628Z,79.4
2019-03-21T08:40:17.601Z,79.59
2019-03-21T08:41:17.580Z,79.3
2019-03-21T08:42:17.561Z,79.4
2019-03-21T08:43:17.534Z,78.77
2019-03-21T08:44:17.511Z,78.67
2019-03-21T08:45:17.486Z,78.86
2019-03-21T08:46:17.478Z,77.72
2019-03-21T08:47:17.444Z,77.82
2019-03-21T08:48:17.422Z,77.72
2019-03-21T08:49:17.398Z,77.44
2019-03-21T08:50:17.399Z,77.25
2019-03-21T08:51:17.145Z,77.06
2019-03-21T08:52:17.338Z,76.57
2019-03-21T08:53:17.306Z,76.86
2019-03-21T08:54:17.282Z,76.77
2019-03-21T08:55:17.262Z,76.2
2019-03-21T08:56:17.263Z,75.53
2019-03-21T08:57:17.219Z,75.72
2019-03-21T08:58:17.195Z,75.53
2019-03-21T08:59:17.171Z,75.24
2019-03-21T09:00:17.145Z,74.96
2019-03-21T09:01:17.128Z,74.57
2019-03-21T09:02:17.143Z,74.61
2019-03-21T09:03:17.078Z,74.23
2019-03-21T09:04:17.053Z,74.04
2019-03-21T09:05:17.039Z,73.94
2019-03-21T09:06:17.005Z,74.13
2019-03-21T09:07:16.986Z,73.37
2019-03-21T09:08:16.962Z,73.28
2019-03-21T09:09:16.935Z,73.08
2019-03-21T09:10:16.931Z,72.8
2019-03-21T09:11:16.895Z,73.18
2019-03-21T09:12:16.871Z,72.23
2019-03-21T09:13:16.845Z,72.42
2019-03-21T09:14:16.827Z,72.51
2019-03-21T09:15:16.800Z,72.23
2019-03-21T09:16:16.978Z,72.13
2019-03-21T09:17:16.774Z,71.88
2019-03-21T09:18:16.733Z,71.5
2019-03-21T09:19:16.715Z,71.5
2019-03-21T09:20:18.797Z,71.41
2019-03-21T09:21:22.302Z,71.12
2019-03-21T09:22:18.516Z,71.02
2019-03-21T09:23:16.619Z,70.92
2019-03-21T09:24:16.593Z,70.64
2019-03-21T09:25:16.574Z,70.73
2019-03-21T09:26:16.549Z,70.64
2019-03-21T09:27:16.527Z,70.64
2019-03-21T09:28:16.818Z,70.29
2019-03-21T09:29:16.479Z,69.72
2019-03-21T09:30:16.468Z,70.1
2019-03-21T09:31:16.445Z,69.82
2019-03-21T09:32:16.597Z,69.62
2019-03-21T09:33:16.398Z,69.82
2019-03-21T09:34:16.371Z,69.34
2019-03-21T09:35:16.356Z,68.1
2019-03-21T09:36:16.334Z,67.71
2019-03-21T09:37:16.310Z,67.62
2019-03-21T09:38:16.289Z,67.52
2019-03-21T09:39:16.265Z,67.33
2019-03-21T09:40:16.246Z,67.05
2019-03-21T09:41:16.220Z,66.85
2019-03-21T09:42:16.213Z,66.66
2019-03-21T09:43:16.181Z,66.5
2019-03-21T09:44:16.163Z,66.03
2019-03-21T09:45:16.136Z,66.13
2019-03-21T09:46:16.120Z,66.03
2019-03-21T09:47:16.095Z,66.22
2019-03-21T09:48:16.075Z,65.64
2019-03-21T09:49:16.055Z,65.45
2019-03-21T09:50:16.033Z,65.64
2019-03-21T09:51:16.013Z,64.98
2019-03-21T09:52:15.990Z,65.26
2019-03-21T09:53:15.984Z,64.98
2019-03-21T09:54:15.950Z,64.69
2019-03-21T09:55:15.925Z,64.78
2019-03-21T09:56:15.903Z,64.4
2019-03-21T09:57:15.883Z,64.31
2019-03-21T09:58:15.865Z,64.5
2019-03-21T09:59:15.839Z,64.59
2019-03-21T10:00:15.815Z,64.4
2019-03-21T10:01:15.797Z,64.31
2019-03-21T10:02:15.774Z,64.59
2019-03-21T10:03:15.775Z,63.83
2019-03-21T10:04:15.735Z,64.12
2019-03-21T10:05:15.708Z,63.83
2019-03-21T10:06:15.688Z,63.93
2019-03-21T10:07:15.670Z,63.83
2019-03-21T10:08:15.671Z,63.54
2019-03-21T10:09:15.625Z,63.54
2019-03-21T10:10:15.606Z,63.19
2019-03-21T10:11:15.592Z,63.29
2019-03-21T10:12:15.675Z,63.57
2019-03-21T10:13:15.537Z,62.62
2019-03-21T10:14:15.522Z,63
2019-03-21T10:15:15.366Z,62.81
2019-03-21T10:16:15.471Z,62.71
2019-03-21T10:17:15.456Z,62.71
2019-03-21T10:18:15.433Z,61.76
2019-03-21T10:19:15.411Z,62.04
2019-03-21T10:20:15.484Z,62.52
2019-03-21T10:21:15.370Z,62.62
2019-03-21T10:22:15.349Z,61.66
2019-03-21T10:23:15.855Z,61.57
2019-03-21T10:24:15.305Z,61.28
2019-03-21T10:25:15.290Z,61.38
2019-03-21T10:26:16.188Z,61.57
2019-03-21T10:27:15.670Z,61.38
2019-03-21T10:28:16.091Z,61.28
2019-03-21T10:29:16.198Z,60.61
2019-03-21T10:30:16.013Z,60.42
2019-03-21T10:31:16.153Z,60.42
2019-03-21T10:32:17.648Z,60.71
2019-03-21T10:33:15.911Z,60.13
2019-03-21T10:34:16.231Z,60.33
2019-03-21T10:35:16.232Z,60.13
2019-03-21T10:36:16.167Z,60.13
2019-03-21T10:37:16.246Z,60.13
2019-03-21T10:38:15.850Z,60.35
2019-03-21T10:39:15.465Z,60.26
2019-03-21T10:40:15.634Z,60.16
2019-03-21T10:41:16.103Z,59.88
2019-03-21T10:42:14.928Z,59.78
2019-03-21T10:43:14.913Z,59.88
2019-03-21T10:44:14.934Z,59.88
2019-03-21T10:45:14.867Z,59.69
2019-03-21T10:46:14.848Z,59.49
2019-03-21T10:47:14.827Z,59.4
2019-03-21T10:48:14.814Z,59.69
2019-03-21T10:49:14.786Z,58.06
2019-03-21T10:50:14.762Z,57.87
2019-03-21T10:51:15.947Z,57.87
2019-03-21T10:52:14.724Z,57.87
2019-03-21T10:53:14.708Z,57.39
2019-03-21T10:54:14.678Z,57.58
2019-03-21T10:55:14.687Z,57.13
2019-03-21T10:56:14.639Z,56.27
2019-03-21T10:57:14.626Z,55.69
2019-03-21T10:58:14.603Z,55.57
2019-03-21T10:59:14.586Z,55.79
2019-03-21T11:00:14.319Z,55.51
2019-03-21T11:01:14.537Z,55.88
2019-03-21T11:02:14.804Z,55.6
2019-03-21T11:03:14.499Z,55.02
2019-03-21T11:04:14.490Z,55.31
2019-03-21T11:05:14.457Z,55.02
2019-03-21T11:06:14.435Z,54.55
2019-03-21T11:07:14.416Z,55.41
2019-03-21T11:08:14.395Z,54.45
2019-03-21T11:09:14.374Z,54.55
2019-03-21T11:10:14.357Z,54.64
2019-03-21T11:11:14.336Z,54.26
2019-03-21T11:12:14.312Z,54.36
2019-03-21T11:13:15.494Z,53.3
2019-03-21T11:14:14.276Z,54
2019-03-21T11:15:14.259Z,53.42
2019-03-21T11:16:14.001Z,53.52
2019-03-21T11:17:14.635Z,53.62
2019-03-21T11:18:14.297Z,53.71
2019-03-21T11:19:14.320Z,53.71
2019-03-21T11:20:14.157Z,53.42
2019-03-21T11:21:14.137Z,52.95
2019-03-21T11:22:14.112Z,52.66
2019-03-21T11:23:14.098Z,52.47
2019-03-21T11:24:14.080Z,52.56
2019-03-21T11:25:14.065Z,52.75
2019-03-21T11:26:14.039Z,52.75
2019-03-21T11:27:14.018Z,52.18
2019-03-21T11:28:13.998Z,52.09
2019-03-21T11:29:13.982Z,52.18
2019-03-21T11:30:18.285Z,52.09
2019-03-21T11:31:13.937Z,52.09
2019-03-21T11:32:13.917Z,51.99
2019-03-21T11:33:13.903Z,51.79
2019-03-21T11:34:13.915Z,52.09
2019-03-21T11:35:13.860Z,51.54
2019-03-21T11:36:13.841Z,51.63
2019-03-21T11:37:13.823Z,51.54
2019-03-21T11:38:13.808Z,51.15
2019-03-21T11:39:13.788Z,51.44
2019-03-21T11:40:13.775Z,51.25
2019-03-21T11:41:13.755Z,51.54
2019-03-21T11:42:13.786Z,50.58
2019-03-21T11:43:13.711Z,50.67
2019-03-21T11:44:13.715Z,50.38
2019-03-21T11:45:15.048Z,50.65
2019-03-21T11:46:13.650Z,51.25
2019-03-21T11:47:13.636Z,50.74
2019-03-21T11:48:13.608Z,51.13
2019-03-21T11:49:13.615Z,50.65
2019-03-21T11:50:13.590Z,50.46
2019-03-21T11:51:13.571Z,50.46
2019-03-21T11:52:20.749Z,51.13
2019-03-21T11:53:13.512Z,51.13
2019-03-21T11:54:13.492Z,51.15
2019-03-21T11:55:13.487Z,51.25
2019-03-21T11:56:15.610Z,50.38
2019-03-21T11:57:13.440Z,50.67
2019-03-21T11:58:13.414Z,50.48
2019-03-21T11:59:13.510Z,50.2
2019-03-21T12:00:13.377Z,50.29
2019-03-21T12:01:13.355Z,49.81
2019-03-21T12:02:13.336Z,49.91
2019-03-21T12:03:13.315Z,49.71
2019-03-21T12:04:13.297Z,50.29
2019-03-21T12:05:13.281Z,49.62
2019-03-21T12:06:13.271Z,50.12
2019-03-21T12:07:13.241Z,49.65
2019-03-21T12:08:13.217Z,49.84
2019-03-21T12:09:13.201Z,49.26
2019-03-21T12:10:13.180Z,49.26
2019-03-21T12:11:13.169Z,48.9
2019-03-21T12:12:13.142Z,49
2019-03-21T12:13:13.126Z,48.71
2019-03-21T12:14:13.105Z,48.71
2019-03-21T12:15:13.087Z,48.61
2019-03-21T12:16:13.065Z,48.8
2019-03-21T12:17:15.262Z,48.88
2019-03-21T12:18:13.034Z,49.07
2019-03-21T12:19:13.111Z,49.16
2019-03-21T12:20:13.004Z,48.59
2019-03-21T12:21:12.972Z,48.69
2019-03-21T12:22:12.958Z,48.97
2019-03-21T12:23:12.933Z,48.59
2019-03-21T12:24:12.926Z,48.69
2019-03-21T12:25:12.900Z,48.69
2019-03-21T12:26:12.879Z,48.59
2019-03-21T12:27:12.859Z,48.97
2019-03-21T12:28:12.842Z,48.78
2019-03-21T12:29:12.822Z,48.69
2019-03-21T12:30:12.802Z,48.88
2019-03-21T12:31:12.785Z,49.26
2019-03-21T12:32:12.767Z,48.59
2019-03-21T12:33:12.756Z,48.88
2019-03-21T12:34:12.731Z,48.49
2019-03-21T12:35:12.719Z,48.4
2019-03-21T12:36:12.689Z,48.4
2019-03-21T12:37:12.675Z,48.3
2019-03-21T12:38:12.653Z,48.4
2019-03-21T12:39:12.632Z,48.4
2019-03-21T12:40:12.616Z,48.4
2019-03-21T12:41:12.598Z,48.3
2019-03-21T12:42:12.601Z,48.49
2019-03-21T12:43:12.558Z,48.23
2019-03-21T12:44:12.547Z,47.94
2019-03-21T12:45:12.523Z,47.92
2019-03-21T12:46:12.511Z,47.63
2019-03-21T12:47:12.489Z,48.02
2019-03-21T12:48:12.503Z,48.11
2019-03-21T12:49:12.447Z,47.82
2019-03-21T12:50:12.435Z,48.11
2019-03-21T12:51:12.976Z,47.63
2019-03-21T12:52:12.404Z,47.85
2019-03-21T12:53:12.392Z,47.75
2019-03-21T12:54:12.355Z,47.85